KSVH/SVH METAR and TAF weather

Enter ICAO airport designator
Station Type Date Time Source
KSVH METAR 2018/12/13 06:40 UTC NOAA

KSVH 130640Z AUTO 00000KT 10SM SCT065 M02/M03 A3019 RMK AO2 T10171035


Station Type Date Time Source
KSVH Decoded METAR 2018/12/13 06:40 UTC NOAA

Statesville, Statesville Municipal Airport, NC, United States (KSVH) 35-45-55N 080-57-24W
Dec 13, 2018 - 01:40 AM EST / 2018.12.13 0640 UTC
Wind: Calm:0
Visibility: 10 mile(s):0
Sky conditions: partly cloudy
Temperature: 28.9 F (-1.7 C)
Dew Point: 25.7 F (-3.5 C)
Relative Humidity: 87%
Pressure (altimeter): 30.19 in. Hg (1022 hPa)
ob: KSVH 130640Z AUTO 00000KT 10SM SCT065 M02/M03 A3019 RMK AO2 T10171035
cycle: 6

Station Type Date Time Source
KSVH TAF UTC NOAA

Error!


Example: see airport list